sensor_id;sensor_type;location;lat;lon;timestamp;P1;durP1;ratioP1;P2;durP2;ratioP2
65535;SDS011;52145;49.342;9.116;2023-02-11T00:03:58;45.90;;;22.98;;
65535;SDS011;52145;49.342;9.116;2023-02-11T00:06:27;46.88;;;22.52;;
65535;SDS011;52145;49.342;9.116;2023-02-11T00:08:54;43.20;;;24.17;;
65535;SDS011;52145;49.342;9.116;2023-02-11T00:11:20;42.35;;;22.63;;
65535;SDS011;52145;49.342;9.116;2023-02-11T00:13:47;40.60;;;21.92;;
65535;SDS011;52145;49.342;9.116;2023-02-11T00:16:17;39.40;;;21.63;;
65535;SDS011;52145;49.342;9.116;2023-02-11T00:18:44;41.38;;;23.88;;
65535;SDS011;52145;49.342;9.116;2023-02-11T00:21:16;46.47;;;24.05;;
65535;SDS011;52145;49.342;9.116;2023-02-11T00:23:44;41.38;;;22.58;;
65535;SDS011;52145;49.342;9.116;2023-02-11T00:26:21;45.67;;;23.95;;
65535;SDS011;52145;49.342;9.116;2023-02-11T00:28:49;46.42;;;22.15;;
65535;SDS011;52145;49.342;9.116;2023-02-11T00:31:16;42.50;;;22.02;;
65535;SDS011;52145;49.342;9.116;2023-02-11T00:33:43;39.95;;;21.10;;
65535;SDS011;52145;49.342;9.116;2023-02-11T00:36:10;40.55;;;22.67;;
65535;SDS011;52145;49.342;9.116;2023-02-11T00:38:42;42.53;;;21.20;;
65535;SDS011;52145;49.342;9.116;2023-02-11T00:41:08;44.88;;;24.00;;
65535;SDS011;52145;49.342;9.116;2023-02-11T00:43:35;42.20;;;23.88;;
65535;SDS011;52145;49.342;9.116;2023-02-11T00:46:00;41.38;;;22.20;;
65535;SDS011;52145;49.342;9.116;2023-02-11T00:48:26;42.63;;;23.38;;
65535;SDS011;52145;49.342;9.116;2023-02-11T00:50:51;38.97;;;21.42;;
65535;SDS011;52145;49.342;9.116;2023-02-11T00:53:17;38.58;;;21.05;;
65535;SDS011;52145;49.342;9.116;2023-02-11T00:55:43;39.72;;;20.40;;
65535;SDS011;52145;49.342;9.116;2023-02-11T00:58:08;37.05;;;21.10;;
65535;SDS011;52145;49.342;9.116;2023-02-11T01:00:34;48.15;;;23.15;;
65535;SDS011;52145;49.342;9.116;2023-02-11T01:02:59;45.05;;;24.35;;
65535;SDS011;52145;49.342;9.116;2023-02-11T01:05:25;39.28;;;21.88;;
65535;SDS011;52145;49.342;9.116;2023-02-11T01:07:50;46.75;;;23.85;;
65535;SDS011;52145;49.342;9.116;2023-02-11T01:10:16;43.10;;;23.45;;
65535;SDS011;52145;49.342;9.116;2023-02-11T01:12:41;38.92;;;22.48;;
65535;SDS011;52145;49.342;9.116;2023-02-11T01:15:07;45.30;;;23.92;;
65535;SDS011;52145;49.342;9.116;2023-02-11T01:17:34;42.67;;;22.67;;
65535;SDS011;52145;49.342;9.116;2023-02-11T01:20:03;44.58;;;22.80;;
65535;SDS011;52145;49.342;9.116;2023-02-11T01:22:30;41.55;;;22.15;;
65535;SDS011;52145;49.342;9.116;2023-02-11T01:24:58;41.15;;;22.73;;
65535;SDS011;52145;49.342;9.116;2023-02-11T01:27:24;38.67;;;21.33;;
65535;SDS011;52145;49.342;9.116;2023-02-11T01:29:49;39.90;;;22.63;;
65535;SDS011;52145;49.342;9.116;2023-02-11T01:32:16;40.63;;;21.70;;
65535;SDS011;52145;49.342;9.116;2023-02-11T01:34:42;38.95;;;22.27;;
65535;SDS011;52145;49.342;9.116;2023-02-11T01:37:07;38.28;;;21.25;;
65535;SDS011;52145;49.342;9.116;2023-02-11T01:39:33;46.15;;;23.02;;
65535;SDS011;52145;49.342;9.116;2023-02-11T01:41:59;43.45;;;24.67;;
65535;SDS011;52145;49.342;9.116;2023-02-11T01:44:27;40.05;;;20.42;;
65535;SDS011;52145;49.342;9.116;2023-02-11T01:46:53;44.17;;;24.25;;
65535;SDS011;52145;49.342;9.116;2023-02-11T01:49:26;36.75;;;20.88;;
65535;SDS011;52145;49.342;9.116;2023-02-11T01:52:16;38.92;;;21.17;;
65535;SDS011;52145;49.342;9.116;2023-02-11T01:54:56;38.42;;;21.05;;
65535;SDS011;52145;49.342;9.116;2023-02-11T01:57:47;42.58;;;21.75;;
65535;SDS011;52145;49.342;9.116;2023-02-11T02:00:29;40.65;;;20.52;;
65535;SDS011;52145;49.342;9.116;2023-02-11T02:03:14;38.75;;;21.77;;
65535;SDS011;52145;49.342;9.116;2023-02-11T02:08:43;40.38;;;21.30;;
65535;SDS011;52145;49.342;9.116;2023-02-11T02:11:15;40.25;;;20.30;;
65535;SDS011;52145;49.342;9.116;2023-02-11T02:13:40;38.50;;;20.83;;
65535;SDS011;52145;49.342;9.116;2023-02-11T02:16:13;41.45;;;21.70;;
65535;SDS011;52145;49.342;9.116;2023-02-11T02:27:14;41.63;;;21.70;;
65535;SDS011;52145;49.342;9.116;2023-02-11T02:38:23;40.85;;;22.02;;
65535;SDS011;52145;49.342;9.116;2023-02-11T02:40:59;44.20;;;22.85;;
65535;SDS011;52145;49.342;9.116;2023-02-11T02:43:40;41.63;;;21.52;;
65535;SDS011;52145;49.342;9.116;2023-02-11T02:48:45;43.03;;;21.90;;
65535;SDS011;52145;49.342;9.116;2023-02-11T03:03:07;40.25;;;22.75;;
65535;SDS011;52145;49.342;9.116;2023-02-11T03:07:57;45.13;;;23.55;;
65535;SDS011;52145;49.342;9.116;2023-02-11T03:10:42;39.88;;;22.48;;
65535;SDS011;52145;49.342;9.116;2023-02-11T03:13:13;42.63;;;22.75;;
65535;SDS011;52145;49.342;9.116;2023-02-11T03:15:42;39.85;;;21.17;;
65535;SDS011;52145;49.342;9.116;2023-02-11T03:18:12;38.55;;;21.95;;
65535;SDS011;52145;49.342;9.116;2023-02-11T03:20:41;38.72;;;20.85;;
65535;SDS011;52145;49.342;9.116;2023-02-11T03:25:56;41.72;;;22.98;;
65535;SDS011;52145;49.342;9.116;2023-02-11T03:31:29;42.25;;;23.70;;
65535;SDS011;52145;49.342;9.116;2023-02-11T03:34:17;41.25;;;21.27;;
65535;SDS011;52145;49.342;9.116;2023-02-11T03:37:09;39.00;;;20.55;;
65535;SDS011;52145;49.342;9.116;2023-02-11T03:39:39;40.08;;;22.23;;
65535;SDS011;52145;49.342;9.116;2023-02-11T03:42:09;40.95;;;20.92;;
65535;SDS011;52145;49.342;9.116;2023-02-11T03:44:42;43.50;;;22.38;;
65535;SDS011;52145;49.342;9.116;2023-02-11T03:47:11;42.65;;;22.65;;
65535;SDS011;52145;49.342;9.116;2023-02-11T03:49:40;39.38;;;21.83;;
65535;SDS011;52145;49.342;9.116;2023-02-11T03:52:08;42.00;;;22.13;;
65535;SDS011;52145;49.342;9.116;2023-02-11T03:54:37;39.47;;;22.00;;
65535;SDS011;52145;49.342;9.116;2023-02-11T03:57:06;36.63;;;20.60;;
65535;SDS011;52145;49.342;9.116;2023-02-11T03:59:31;39.65;;;21.73;;
65535;SDS011;52145;49.342;9.116;2023-02-11T04:02:24;37.53;;;20.58;;
65535;SDS011;52145;49.342;9.116;2023-02-11T04:04:53;40.75;;;21.60;;
65535;SDS011;52145;49.342;9.116;2023-02-11T04:07:18;38.53;;;22.75;;
65535;SDS011;52145;49.342;9.116;2023-02-11T04:09:44;46.35;;;22.52;;
65535;SDS011;52145;49.342;9.116;2023-02-11T04:12:10;40.97;;;22.40;;
65535;SDS011;52145;49.342;9.116;2023-02-11T04:14:35;39.80;;;23.42;;
65535;SDS011;52145;49.342;9.116;2023-02-11T04:17:01;38.70;;;20.40;;
65535;SDS011;52145;49.342;9.116;2023-02-11T04:19:27;38.97;;;21.83;;
65535;SDS011;52145;49.342;9.116;2023-02-11T04:21:52;37.22;;;21.33;;
65535;SDS011;52145;49.342;9.116;2023-02-11T04:24:18;46.90;;;21.92;;
65535;SDS011;52145;49.342;9.116;2023-02-11T04:26:43;38.13;;;22.58;;
65535;SDS011;52145;49.342;9.116;2023-02-11T04:29:09;40.03;;;22.40;;
65535;SDS011;52145;49.342;9.116;2023-02-11T04:31:34;41.15;;;23.15;;
65535;SDS011;52145;49.342;9.116;2023-02-11T04:34:00;39.15;;;23.30;;
65535;SDS011;52145;49.342;9.116;2023-02-11T04:36:25;40.20;;;21.88;;
65535;SDS011;52145;49.342;9.116;2023-02-11T04:38:51;37.55;;;21.38;;
65535;SDS011;52145;49.342;9.116;2023-02-11T04:41:16;42.60;;;22.90;;
65535;SDS011;52145;49.342;9.116;2023-02-11T04:43:42;42.72;;;22.92;;
65535;SDS011;52145;49.342;9.116;2023-02-11T04:46:07;43.00;;;21.83;;
65535;SDS011;52145;49.342;9.116;2023-02-11T04:48:33;40.00;;;22.17;;
65535;SDS011;52145;49.342;9.116;2023-02-11T04:50:59;41.05;;;21.02;;
65535;SDS011;52145;49.342;9.116;2023-02-11T04:53:26;41.33;;;22.13;;
65535;SDS011;52145;49.342;9.116;2023-02-11T04:55:51;44.85;;;23.38;;
65535;SDS011;52145;49.342;9.116;2023-02-11T04:58:17;41.67;;;23.92;;
65535;SDS011;52145;49.342;9.116;2023-02-11T05:00:43;49.97;;;24.38;;
65535;SDS011;52145;49.342;9.116;2023-02-11T05:03:08;40.83;;;22.00;;
65535;SDS011;52145;49.342;9.116;2023-02-11T05:05:37;44.38;;;22.58;;
65535;SDS011;52145;49.342;9.116;2023-02-11T05:08:04;41.20;;;23.55;;
65535;SDS011;52145;49.342;9.116;2023-02-11T05:10:29;44.17;;;23.60;;
65535;SDS011;52145;49.342;9.116;2023-02-11T05:12:55;41.67;;;22.40;;
65535;SDS011;52145;49.342;9.116;2023-02-11T05:15:20;41.95;;;21.83;;
65535;SDS011;52145;49.342;9.116;2023-02-11T10:06:54;24.30;;;14.32;;
65535;SDS011;52145;49.342;9.116;2023-02-11T10:12:21;26.80;;;14.52;;
65535;SDS011;52145;49.342;9.116;2023-02-11T10:20:45;26.13;;;14.38;;
65535;SDS011;52145;49.342;9.116;2023-02-11T10:23:21;22.23;;;13.88;;
65535;SDS011;52145;49.342;9.116;2023-02-11T10:25:51;24.85;;;14.20;;
65535;SDS011;52145;49.342;9.116;2023-02-11T10:28:33;25.13;;;15.00;;
65535;SDS011;52145;49.342;9.116;2023-02-11T10:36:13;25.85;;;14.43;;
65535;SDS011;52145;49.342;9.116;2023-02-11T10:38:41;26.63;;;16.52;;
65535;SDS011;52145;49.342;9.116;2023-02-11T10:41:17;29.42;;;15.90;;
65535;SDS011;52145;49.342;9.116;2023-02-11T10:43:46;26.63;;;15.88;;
65535;SDS011;52145;49.342;9.116;2023-02-11T10:46:15;24.17;;;14.60;;
65535;SDS011;52145;49.342;9.116;2023-02-11T10:48:44;24.40;;;15.55;;
65535;SDS011;52145;49.342;9.116;2023-02-11T10:51:22;27.30;;;16.05;;
65535;SDS011;52145;49.342;9.116;2023-02-11T10:53:52;25.23;;;14.95;;
65535;SDS011;52145;49.342;9.116;2023-02-11T10:56:44;25.48;;;16.08;;
65535;SDS011;52145;49.342;9.116;2023-02-11T11:01:47;30.20;;;17.40;;
65535;SDS011;52145;49.342;9.116;2023-02-11T11:04:30;27.58;;;16.70;;
65535;SDS011;52145;49.342;9.116;2023-02-11T11:09:48;28.02;;;15.65;;
65535;SDS011;52145;49.342;9.116;2023-02-11T11:14:58;23.83;;;14.52;;
65535;SDS011;52145;49.342;9.116;2023-02-11T11:17:33;24.52;;;15.13;;
65535;SDS011;52145;49.342;9.116;2023-02-11T11:20:15;28.90;;;15.77;;
65535;SDS011;52145;49.342;9.116;2023-02-11T11:22:53;25.48;;;16.55;;
65535;SDS011;52145;49.342;9.116;2023-02-11T11:25:34;24.42;;;14.57;;
65535;SDS011;52145;49.342;9.116;2023-02-11T11:28:02;25.13;;;15.68;;
65535;SDS011;52145;49.342;9.116;2023-02-11T11:30:38;26.67;;;17.00;;
65535;SDS011;52145;49.342;9.116;2023-02-11T11:33:14;32.00;;;17.73;;
65535;SDS011;52145;49.342;9.116;2023-02-11T11:36:00;28.40;;;16.23;;
65535;SDS011;52145;49.342;9.116;2023-02-11T11:38:28;22.98;;;15.45;;
65535;SDS011;52145;49.342;9.116;2023-02-11T11:46:33;30.77;;;16.05;;
65535;SDS011;52145;49.342;9.116;2023-02-11T11:49:06;27.27;;;16.50;;
65535;SDS011;52145;49.342;9.116;2023-02-11T11:51:46;28.05;;;14.63;;
65535;SDS011;52145;49.342;9.116;2023-02-11T11:54:19;24.13;;;15.15;;
65535;SDS011;52145;49.342;9.116;2023-02-11T11:57:09;25.77;;;15.65;;
65535;SDS011;52145;49.342;9.116;2023-02-11T11:59:41;26.65;;;15.25;;
65535;SDS011;52145;49.342;9.116;2023-02-11T12:02:20;22.55;;;14.45;;
65535;SDS011;52145;49.342;9.116;2023-02-11T12:07:43;27.27;;;15.02;;
65535;SDS011;52145;49.342;9.116;2023-02-11T12:10:26;24.13;;;15.48;;
65535;SDS011;52145;49.342;9.116;2023-02-11T12:13:08;24.13;;;16.02;;
65535;SDS011;52145;49.342;9.116;2023-02-11T12:18:44;23.75;;;14.65;;
65535;SDS011;52145;49.342;9.116;2023-02-11T12:24:33;22.85;;;15.27;;
65535;SDS011;52145;49.342;9.116;2023-02-11T12:27:11;22.83;;;15.93;;
65535;SDS011;52145;49.342;9.116;2023-02-11T12:33:04;20.67;;;13.30;;
65535;SDS011;52145;49.342;9.116;2023-02-11T12:36:01;23.58;;;15.02;;
65535;SDS011;52145;49.342;9.116;2023-02-11T12:38:38;23.20;;;14.77;;
65535;SDS011;52145;49.342;9.116;2023-02-11T12:44:26;23.48;;;14.27;;
65535;SDS011;52145;49.342;9.116;2023-02-11T12:55:27;23.50;;;16.20;;
65535;SDS011;52145;49.342;9.116;2023-02-11T12:58:00;19.42;;;13.77;;
65535;SDS011;52145;49.342;9.116;2023-02-11T13:00:48;20.63;;;13.98;;
65535;SDS011;52145;49.342;9.116;2023-02-11T13:03:29;20.90;;;13.63;;
65535;SDS011;52145;49.342;9.116;2023-02-11T13:06:03;22.92;;;14.10;;
65535;SDS011;52145;49.342;9.116;2023-02-11T13:08:34;24.95;;;14.23;;
65535;SDS011;52145;49.342;9.116;2023-02-11T13:11:08;19.67;;;14.00;;
65535;SDS011;52145;49.342;9.116;2023-02-11T13:13:51;18.98;;;13.07;;
65535;SDS011;52145;49.342;9.116;2023-02-11T13:18:49;20.05;;;13.40;;
65535;SDS011;52145;49.342;9.116;2023-02-11T13:21:27;19.92;;;13.32;;
65535;SDS011;52145;49.342;9.116;2023-02-11T13:24:07;22.88;;;13.55;;
65535;SDS011;52145;49.342;9.116;2023-02-11T13:35:26;19.00;;;13.55;;
65535;SDS011;52145;49.342;9.116;2023-02-11T13:37:59;20.95;;;12.85;;
65535;SDS011;52145;49.342;9.116;2023-02-11T13:40:36;21.27;;;13.52;;
65535;SDS011;52145;49.342;9.116;2023-02-11T13:43:03;17.90;;;12.95;;
65535;SDS011;52145;49.342;9.116;2023-02-11T13:45:35;21.00;;;14.10;;
65535;SDS011;52145;49.342;9.116;2023-02-11T13:48:16;19.55;;;12.77;;
65535;SDS011;52145;49.342;9.116;2023-02-11T13:50:47;22.30;;;14.05;;
65535;SDS011;52145;49.342;9.116;2023-02-11T13:53:18;23.30;;;13.88;;
65535;SDS011;52145;49.342;9.116;2023-02-11T13:55:45;22.35;;;14.98;;
65535;SDS011;52145;49.342;9.116;2023-02-11T14:17:15;24.23;;;13.65;;
65535;SDS011;52145;49.342;9.116;2023-02-11T14:19:43;21.05;;;12.82;;
65535;SDS011;52145;49.342;9.116;2023-02-11T14:22:14;18.95;;;13.15;;
65535;SDS011;52145;49.342;9.116;2023-02-11T14:27:20;22.85;;;14.45;;
65535;SDS011;52145;49.342;9.116;2023-02-11T14:29:50;24.33;;;14.75;;
65535;SDS011;52145;49.342;9.116;2023-02-11T14:32:24;26.13;;;12.85;;
65535;SDS011;52145;49.342;9.116;2023-02-11T14:37:38;22.75;;;13.13;;
65535;SDS011;52145;49.342;9.116;2023-02-11T14:42:46;22.88;;;14.35;;
65535;SDS011;52145;49.342;9.116;2023-02-11T14:45:17;21.13;;;13.40;;
65535;SDS011;52145;49.342;9.116;2023-02-11T14:47:50;21.65;;;12.95;;
65535;SDS011;52145;49.342;9.116;2023-02-11T14:50:25;21.60;;;13.40;;
65535;SDS011;52145;49.342;9.116;2023-02-11T14:52:55;25.75;;;14.18;;
65535;SDS011;52145;49.342;9.116;2023-02-11T14:58:06;21.88;;;12.63;;
65535;SDS011;52145;49.342;9.116;2023-02-11T15:00:35;22.48;;;11.80;;
65535;SDS011;52145;49.342;9.116;2023-02-11T15:03:00;18.85;;;11.77;;
65535;SDS011;52145;49.342;9.116;2023-02-11T15:05:27;21.65;;;12.43;;
65535;SDS011;52145;49.342;9.116;2023-02-11T15:07:59;22.38;;;12.35;;
65535;SDS011;52145;49.342;9.116;2023-02-11T15:10:31;20.30;;;12.93;;
65535;SDS011;52145;49.342;9.116;2023-02-11T15:13:05;19.65;;;12.20;;
65535;SDS011;52145;49.342;9.116;2023-02-11T15:15:31;20.88;;;12.50;;
65535;SDS011;52145;49.342;9.116;2023-02-11T15:18:00;19.92;;;11.13;;
65535;SDS011;52145;49.342;9.116;2023-02-11T15:20:28;17.42;;;10.68;;
65535;SDS011;52145;49.342;9.116;2023-02-11T15:23:03;18.40;;;10.35;;
65535;SDS011;52145;49.342;9.116;2023-02-11T15:25:33;20.40;;;12.35;;
65535;SDS011;52145;49.342;9.116;2023-02-11T15:28:09;21.02;;;13.77;;
65535;SDS011;52145;49.342;9.116;2023-02-11T15:30:45;23.55;;;14.10;;
65535;SDS011;52145;49.342;9.116;2023-02-11T15:33:19;24.50;;;13.93;;
65535;SDS011;52145;49.342;9.116;2023-02-11T15:38:12;23.83;;;13.18;;
65535;SDS011;52145;49.342;9.116;2023-02-11T15:40:38;21.25;;;12.40;;
65535;SDS011;52145;49.342;9.116;2023-02-11T15:43:04;21.13;;;12.70;;
65535;SDS011;52145;49.342;9.116;2023-02-11T15:45:33;22.98;;;13.23;;
65535;SDS011;52145;49.342;9.116;2023-02-11T15:48:06;21.05;;;13.05;;
65535;SDS011;52145;49.342;9.116;2023-02-11T15:50:34;21.15;;;12.02;;
65535;SDS011;52145;49.342;9.116;2023-02-11T15:53:03;21.67;;;12.93;;
65535;SDS011;52145;49.342;9.116;2023-02-11T15:55:51;23.45;;;12.68;;
65535;SDS011;52145;49.342;9.116;2023-02-11T15:58:21;26.27;;;12.48;;
65535;SDS011;52145;49.342;9.116;2023-02-11T16:00:48;20.83;;;12.70;;
65535;SDS011;52145;49.342;9.116;2023-02-11T16:03:25;20.65;;;12.18;;
65535;SDS011;52145;49.342;9.116;2023-02-11T16:06:13;20.98;;;12.07;;
65535;SDS011;52145;49.342;9.116;2023-02-11T16:11:35;19.92;;;11.60;;
65535;SDS011;52145;49.342;9.116;2023-02-11T16:16:54;20.38;;;11.48;;
65535;SDS011;52145;49.342;9.116;2023-02-11T16:19:23;23.15;;;12.07;;
65535;SDS011;52145;49.342;9.116;2023-02-11T16:21:49;21.05;;;12.70;;
65535;SDS011;52145;49.342;9.116;2023-02-11T16:24:17;22.95;;;13.20;;
65535;SDS011;52145;49.342;9.116;2023-02-11T16:26:46;21.25;;;12.18;;
65535;SDS011;52145;49.342;9.116;2023-02-11T16:29:15;22.17;;;12.80;;
65535;SDS011;52145;49.342;9.116;2023-02-11T16:31:45;21.77;;;13.68;;
65535;SDS011;52145;49.342;9.116;2023-02-11T16:36:45;21.83;;;12.63;;
65535;SDS011;52145;49.342;9.116;2023-02-11T16:39:11;19.35;;;11.90;;
65535;SDS011;52145;49.342;9.116;2023-02-11T16:41:38;21.80;;;12.30;;
65535;SDS011;52145;49.342;9.116;2023-02-11T16:44:04;24.65;;;14.55;;
65535;SDS011;52145;49.342;9.116;2023-02-11T16:46:30;24.55;;;13.77;;
65535;SDS011;52145;49.342;9.116;2023-02-11T16:48:56;23.23;;;14.43;;
65535;SDS011;52145;49.342;9.116;2023-02-11T16:51:24;27.95;;;14.15;;
65535;SDS011;52145;49.342;9.116;2023-02-11T16:53:50;23.13;;;13.65;;
65535;SDS011;52145;49.342;9.116;2023-02-11T16:56:16;19.38;;;12.85;;
65535;SDS011;52145;49.342;9.116;2023-02-11T16:58:42;22.05;;;13.70;;
65535;SDS011;52145;49.342;9.116;2023-02-11T17:01:08;23.15;;;12.73;;
65535;SDS011;52145;49.342;9.116;2023-02-11T17:03:35;24.15;;;14.63;;
65535;SDS011;52145;49.342;9.116;2023-02-11T17:06:04;23.13;;;13.35;;
65535;SDS011;52145;49.342;9.116;2023-02-11T17:08:34;25.17;;;14.98;;
65535;SDS011;52145;49.342;9.116;2023-02-11T17:11:00;29.42;;;16.83;;
65535;SDS011;52145;49.342;9.116;2023-02-11T17:13:26;26.67;;;15.57;;
65535;SDS011;52145;49.342;9.116;2023-02-11T17:15:51;28.27;;;15.77;;
65535;SDS011;52145;49.342;9.116;2023-02-11T17:18:17;27.35;;;15.27;;
65535;SDS011;52145;49.342;9.116;2023-02-11T17:20:43;28.40;;;18.50;;
65535;SDS011;52145;49.342;9.116;2023-02-11T17:23:08;26.27;;;15.68;;
65535;SDS011;52145;49.342;9.116;2023-02-11T17:25:34;28.55;;;17.60;;
65535;SDS011;52145;49.342;9.116;2023-02-11T17:28:01;29.02;;;17.48;;
65535;SDS011;52145;49.342;9.116;2023-02-11T17:30:28;30.73;;;17.58;;
65535;SDS011;52145;49.342;9.116;2023-02-11T17:32:53;29.92;;;16.55;;
65535;SDS011;52145;49.342;9.116;2023-02-11T17:35:19;26.90;;;17.40;;
65535;SDS011;52145;49.342;9.116;2023-02-11T17:37:45;26.88;;;15.65;;
65535;SDS011;52145;49.342;9.116;2023-02-11T17:40:10;27.58;;;16.63;;
65535;SDS011;52145;49.342;9.116;2023-02-11T17:42:36;25.48;;;16.42;;
65535;SDS011;52145;49.342;9.116;2023-02-11T17:45:02;29.83;;;17.88;;
65535;SDS011;52145;49.342;9.116;2023-02-11T17:47:28;29.10;;;17.50;;
65535;SDS011;52145;49.342;9.116;2023-02-11T17:49:54;29.05;;;17.70;;
65535;SDS011;52145;49.342;9.116;2023-02-11T17:52:19;26.15;;;17.23;;
65535;SDS011;52145;49.342;9.116;2023-02-11T17:54:45;31.10;;;18.80;;
65535;SDS011;52145;49.342;9.116;2023-02-11T17:57:11;34.42;;;18.67;;
65535;SDS011;52145;49.342;9.116;2023-02-11T17:59:37;27.48;;;16.23;;
65535;SDS011;52145;49.342;9.116;2023-02-11T18:02:03;29.10;;;16.92;;
65535;SDS011;52145;49.342;9.116;2023-02-11T18:04:30;28.33;;;16.58;;
65535;SDS011;52145;49.342;9.116;2023-02-11T18:06:56;25.95;;;16.83;;
65535;SDS011;52145;49.342;9.116;2023-02-11T18:09:22;30.02;;;16.88;;
65535;SDS011;52145;49.342;9.116;2023-02-11T18:11:48;26.92;;;17.00;;
65535;SDS011;52145;49.342;9.116;2023-02-11T18:14:16;28.48;;;17.17;;
65535;SDS011;52145;49.342;9.116;2023-02-11T18:16:42;35.33;;;19.55;;
65535;SDS011;52145;49.342;9.116;2023-02-11T18:19:09;30.05;;;18.02;;
65535;SDS011;52145;49.342;9.116;2023-02-11T18:21:36;28.52;;;18.02;;
65535;SDS011;52145;49.342;9.116;2023-02-11T18:24:03;32.05;;;18.98;;
65535;SDS011;52145;49.342;9.116;2023-02-11T18:26:28;33.80;;;18.98;;
65535;SDS011;52145;49.342;9.116;2023-02-11T18:28:55;33.75;;;19.13;;
65535;SDS011;52145;49.342;9.116;2023-02-11T18:31:22;31.27;;;19.27;;
65535;SDS011;52145;49.342;9.116;2023-02-11T18:33:48;31.35;;;18.80;;
65535;SDS011;52145;49.342;9.116;2023-02-11T18:36:16;33.38;;;19.15;;
65535;SDS011;52145;49.342;9.116;2023-02-11T18:38:42;29.50;;;18.65;;
65535;SDS011;52145;49.342;9.116;2023-02-11T18:41:08;32.53;;;19.05;;
65535;SDS011;52145;49.342;9.116;2023-02-11T18:43:34;30.27;;;19.77;;
65535;SDS011;52145;49.342;9.116;2023-02-11T18:46:01;32.40;;;18.63;;
65535;SDS011;52145;49.342;9.116;2023-02-11T18:48:30;29.52;;;17.90;;
65535;SDS011;52145;49.342;9.116;2023-02-11T18:50:56;33.78;;;18.88;;
65535;SDS011;52145;49.342;9.116;2023-02-11T18:53:22;30.63;;;18.90;;
65535;SDS011;52145;49.342;9.116;2023-02-11T18:55:50;30.23;;;18.98;;
65535;SDS011;52145;49.342;9.116;2023-02-11T18:58:16;29.42;;;18.73;;
65535;SDS011;52145;49.342;9.116;2023-02-11T19:00:43;35.33;;;18.92;;
65535;SDS011;52145;49.342;9.116;2023-02-11T19:03:10;29.63;;;17.35;;
65535;SDS011;52145;49.342;9.116;2023-02-11T19:05:40;32.47;;;19.67;;
65535;SDS011;52145;49.342;9.116;2023-02-11T19:08:10;35.10;;;20.38;;
65535;SDS011;52145;49.342;9.116;2023-02-11T19:10:40;38.42;;;20.63;;
65535;SDS011;52145;49.342;9.116;2023-02-11T19:13:06;33.75;;;19.75;;
65535;SDS011;52145;49.342;9.116;2023-02-11T19:15:31;32.75;;;20.23;;
65535;SDS011;52145;49.342;9.116;2023-02-11T19:17:57;36.63;;;20.80;;
65535;SDS011;52145;49.342;9.116;2023-02-11T19:20:23;35.50;;;21.80;;
65535;SDS011;52145;49.342;9.116;2023-02-11T19:22:48;35.63;;;21.77;;
65535;SDS011;52145;49.342;9.116;2023-02-11T19:25:14;35.97;;;21.10;;
65535;SDS011;52145;49.342;9.116;2023-02-11T19:27:40;38.42;;;22.70;;
65535;SDS011;52145;49.342;9.116;2023-02-11T19:30:06;40.85;;;22.48;;
65535;SDS011;52145;49.342;9.116;2023-02-11T19:32:32;36.47;;;22.55;;
65535;SDS011;52145;49.342;9.116;2023-02-11T19:34:58;36.25;;;21.92;;
65535;SDS011;52145;49.342;9.116;2023-02-11T19:37:23;37.25;;;21.77;;
65535;SDS011;52145;49.342;9.116;2023-02-11T19:39:49;35.72;;;21.58;;
65535;SDS011;52145;49.342;9.116;2023-02-11T19:42:14;39.55;;;22.05;;
65535;SDS011;52145;49.342;9.116;2023-02-11T19:44:40;33.40;;;20.88;;
65535;SDS011;52145;49.342;9.116;2023-02-11T19:47:06;37.63;;;21.70;;
65535;SDS011;52145;49.342;9.116;2023-02-11T19:49:32;35.03;;;20.90;;
65535;SDS011;52145;49.342;9.116;2023-02-11T19:51:57;36.88;;;21.58;;
65535;SDS011;52145;49.342;9.116;2023-02-11T19:54:23;39.30;;;21.40;;
65535;SDS011;52145;49.342;9.116;2023-02-11T19:56:53;38.80;;;22.13;;
65535;SDS011;52145;49.342;9.116;2023-02-11T19:59:19;34.50;;;22.20;;
65535;SDS011;52145;49.342;9.116;2023-02-11T20:01:45;38.40;;;22.50;;
65535;SDS011;52145;49.342;9.116;2023-02-11T20:04:13;36.03;;;22.00;;
65535;SDS011;52145;49.342;9.116;2023-02-11T20:06:39;38.20;;;23.35;;
65535;SDS011;52145;49.342;9.116;2023-02-11T20:09:06;40.70;;;23.55;;
65535;SDS011;52145;49.342;9.116;2023-02-11T20:11:34;40.70;;;24.67;;
65535;SDS011;52145;49.342;9.116;2023-02-11T20:14:01;39.13;;;23.98;;
65535;SDS011;52145;49.342;9.116;2023-02-11T20:16:28;40.88;;;24.63;;
65535;SDS011;52145;49.342;9.116;2023-02-11T20:18:55;39.72;;;24.77;;
65535;SDS011;52145;49.342;9.116;2023-02-11T20:21:21;39.42;;;25.08;;
65535;SDS011;52145;49.342;9.116;2023-02-11T20:23:48;38.78;;;21.98;;
65535;SDS011;52145;49.342;9.116;2023-02-11T20:26:19;40.25;;;23.48;;
65535;SDS011;52145;49.342;9.116;2023-02-11T20:28:50;37.30;;;23.63;;
65535;SDS011;52145;49.342;9.116;2023-02-11T20:31:16;36.72;;;21.60;;
65535;SDS011;52145;49.342;9.116;2023-02-11T20:33:43;35.33;;;21.90;;
65535;SDS011;52145;49.342;9.116;2023-02-11T20:36:10;39.08;;;21.35;;
65535;SDS011;52145;49.342;9.116;2023-02-11T20:38:39;33.78;;;20.92;;
65535;SDS011;52145;49.342;9.116;2023-02-11T20:41:06;36.53;;;21.23;;
65535;SDS011;52145;49.342;9.116;2023-02-11T20:43:34;35.25;;;21.63;;
65535;SDS011;52145;49.342;9.116;2023-02-11T20:46:02;35.72;;;21.35;;
65535;SDS011;52145;49.342;9.116;2023-02-11T20:48:29;37.92;;;23.15;;
65535;SDS011;52145;49.342;9.116;2023-02-11T20:50:55;37.20;;;21.90;;
65535;SDS011;52145;49.342;9.116;2023-02-11T20:53:29;36.45;;;22.63;;
65535;SDS011;52145;49.342;9.116;2023-02-11T20:55:54;35.05;;;21.33;;
65535;SDS011;52145;49.342;9.116;2023-02-11T20:58:20;36.03;;;20.55;;
65535;SDS011;52145;49.342;9.116;2023-02-11T21:00:45;32.50;;;20.75;;
65535;SDS011;52145;49.342;9.116;2023-02-11T21:03:11;37.67;;;22.35;;
65535;SDS011;52145;49.342;9.116;2023-02-11T21:05:36;39.42;;;22.77;;
65535;SDS011;52145;49.342;9.116;2023-02-11T21:08:02;41.95;;;24.10;;
65535;SDS011;52145;49.342;9.116;2023-02-11T21:10:28;36.05;;;21.70;;
65535;SDS011;52145;49.342;9.116;2023-02-11T21:12:53;37.85;;;21.95;;
65535;SDS011;52145;49.342;9.116;2023-02-11T21:15:19;36.40;;;21.95;;
65535;SDS011;52145;49.342;9.116;2023-02-11T21:17:45;33.15;;;20.52;;
65535;SDS011;52145;49.342;9.116;2023-02-11T21:20:10;37.45;;;21.70;;
65535;SDS011;52145;49.342;9.116;2023-02-11T21:22:36;38.22;;;21.83;;
65535;SDS011;52145;49.342;9.116;2023-02-11T21:25:01;35.88;;;21.52;;
65535;SDS011;52145;49.342;9.116;2023-02-11T21:27:27;36.60;;;21.55;;
65535;SDS011;52145;49.342;9.116;2023-02-11T21:29:58;35.60;;;20.63;;
65535;SDS011;52145;49.342;9.116;2023-02-11T21:32:24;34.60;;;20.80;;
65535;SDS011;52145;49.342;9.116;2023-02-11T21:34:50;34.72;;;20.73;;
65535;SDS011;52145;49.342;9.116;2023-02-11T21:37:15;35.55;;;21.70;;
65535;SDS011;52145;49.342;9.116;2023-02-11T21:39:41;39.72;;;22.48;;
65535;SDS011;52145;49.342;9.116;2023-02-11T21:42:07;38.10;;;23.35;;
65535;SDS011;52145;49.342;9.116;2023-02-11T21:44:33;37.08;;;20.40;;
65535;SDS011;52145;49.342;9.116;2023-02-11T21:46:58;34.78;;;20.33;;
65535;SDS011;52145;49.342;9.116;2023-02-11T21:49:24;37.92;;;21.05;;
65535;SDS011;52145;49.342;9.116;2023-02-11T21:51:49;34.05;;;20.48;;